Airfield :
LOGIN :

Register | Disclaimer

   EN    FR    IT 

 










Legend :    VFR   Marginal VFR   IFR   Intensive IFR   Very Intensive IFR
Visi :
Ceiling :
>= 8 km
>= 3000ft
5 to 8 km
1000 to 3000 ft
1500m to 5 km
500 to 1000 ft
800 to 1500m
200 to 500 ft
< 800m
< 200 ft
Symbols :   Thunderstorms  Fog  Heavy snow  Heavy precipitations  Wind > 20 kt
SIGMETs :     Misc.  Thunderstorms  Icing  Turbulence  Mountain Waves  Volcanic Ashes






- Airport Elevation : 247 ft
- IATA code : BLL


EKBI - Billund

CURRENT METAR :
  • 171220Z AUTO 24007KT 9999 BKN017/// BKN043/// 14/11 Q1007

EXPIRED METARs :
  • 171150Z AUTO 22006KT 190V260 9999 OVC024/// 14/11 Q1007
  • 171120Z AUTO 23008KT 200V270 9999 BKN017/// BKN056/// 14/11 Q1007
  • 171050Z AUTO 24009KT 9999 FEW015/// BKN049/// 14/11 Q1007
  • 171020Z AUTO 24008KT 200V260 9999 FEW011/// BKN050/// BKN076/// 14/12 Q1007
  • 170950Z AUTO 22008KT 190V250 9999 BKN007/// BKN067/// 14/12 Q1006

TAF TAF EKBI
Valid from the 17 at 12:00 until the 18 at 12:00 UTC


171101Z 1712/1812 23006KT 9999 SCT020
TEMPO 1712/1714 BKN012
TEMPO 1721/1803 SCT018TCU
BECMG 1803/1805 1500 BR BKN003
TEMPO 1805/1808 4000 SHRA BKN010 SCT020CB
BECMG 1808/1810 15012KT 8000 NSW BKN015
TEMPO 1810/1812 4000 SHRA BR BKN008 SCT020CB



MET'MAP, your aeronautical weather chart ! - Copyright ORBIFLY December 2007 - Disclaimer

ORBIFLY MET'MAP TEAM :

Programming & Development : Alexandra Zaïnal
Concept & Development : Baudouin d'Aumeries
Co-Development & Prog : Marc-Olivier Méhu
Technical & hardware support : Manuel Goepfert

Contact : metmap@orbifly.com




SOURCES & CREDITS :

   NOAA